Peddler Hill, California
Current Conditions -  °F | °C
As of 4:35 AM on Sunday 21 Dec 2014 (Local Time) from KPVF Reporting Station
Overcast Overcast  
Wind Chill: 46°   Ceiling: 300
Heat Index: 48°   Visibility: 1mi
Dew Point: 48°   Wind: 6mph
Humidity: 100%   Direction: 170°S
Pressure: 30.27"   Gusts: NA
Location:  38.5644°N, 120.32°W
Report Text: KPVF 211235Z AUTO 17005KT 1SM OVC003 09/09 A3027 RMK AO1
Loading
Personal Weather Stations






























Interactive Weather Map New forecast layout! Learn more

10-Day Weather Forecast

Advertisements
Track Severe Weather on mobile